createdAt,value
2018-12-05T00:00:44.789Z,100.0
2018-12-05T00:01:46.187Z,100.0
2018-12-05T00:02:47.578Z,100.0
2018-12-05T00:03:48.953Z,100.0
2018-12-05T00:04:50.334Z,100.0
2018-12-05T00:05:51.711Z,100.0
2018-12-05T00:06:53.091Z,100.0
2018-12-05T00:07:54.470Z,100.0
2018-12-05T00:08:55.849Z,100.0
2018-12-05T00:09:57.232Z,100.0
2018-12-05T00:10:58.616Z,100.0
2018-12-05T00:11:59.995Z,100.0
2018-12-05T00:13:01.374Z,100.0
2018-12-05T00:14:02.754Z,100.0
2018-12-05T00:15:04.132Z,100.0
2018-12-05T00:16:05.521Z,100.0
2018-12-05T00:17:06.900Z,100.0
2018-12-05T00:18:08.283Z,100.0
2018-12-05T00:19:09.661Z,100.0
2018-12-05T00:20:11.045Z,100.0
2018-12-05T00:21:12.417Z,100.0
2018-12-05T00:22:13.795Z,100.0
2018-12-05T00:23:15.178Z,100.0
2018-12-05T00:24:16.582Z,100.0
2018-12-05T00:25:17.966Z,100.0
2018-12-05T00:26:19.343Z,100.0
2018-12-05T00:27:20.723Z,100.0
2018-12-05T00:28:22.105Z,100.0
2018-12-05T00:29:23.487Z,100.0
2018-12-05T00:30:24.866Z,100.0
2018-12-05T00:31:26.241Z,100.0
2018-12-05T00:32:27.630Z,100.0
2018-12-05T00:33:29.010Z,100.0
2018-12-05T00:34:30.399Z,100.0
2018-12-05T00:35:31.778Z,100.0
2018-12-05T00:36:33.159Z,100.0
2018-12-05T00:37:34.542Z,100.0
2018-12-05T00:38:35.922Z,100.0
2018-12-05T00:39:37.300Z,100.0
2018-12-05T00:40:38.680Z,100.0
2018-12-05T00:41:40.061Z,100.0
2018-12-05T00:42:41.502Z,100.0
2018-12-05T00:43:42.880Z,100.0
2018-12-05T00:44:44.265Z,100.0
2018-12-05T00:45:45.645Z,100.0
2018-12-05T00:46:47.063Z,100.0
2018-12-05T00:47:48.443Z,100.0
2018-12-05T00:48:49.821Z,100.0
2018-12-05T00:49:51.197Z,100.0
2018-12-05T00:50:52.579Z,100.0
2018-12-05T00:51:53.954Z,100.0
2018-12-05T00:52:55.336Z,100.0
2018-12-05T00:53:56.716Z,100.0
2018-12-05T00:54:58.125Z,100.0
2018-12-05T00:55:59.503Z,100.0
2018-12-05T00:57:00.896Z,100.0
2018-12-05T00:58:02.274Z,100.0
2018-12-05T00:59:03.657Z,100.0
2018-12-05T01:00:05.041Z,100.0
2018-12-05T01:01:06.419Z,100.0
2018-12-05T01:02:07.820Z,100.0
2018-12-05T01:03:09.199Z,100.0
2018-12-05T01:04:10.583Z,100.0
2018-12-05T01:05:11.966Z,100.0
2018-12-05T01:06:13.348Z,100.0
2018-12-05T01:07:14.732Z,100.0
2018-12-05T01:08:16.111Z,100.0
2018-12-05T01:09:17.488Z,100.0
2018-12-05T01:10:18.976Z,100.0
2018-12-05T01:11:20.248Z,100.0
2018-12-05T01:12:21.631Z,100.0
2018-12-05T01:13:23.009Z,100.0
2018-12-05T01:14:24.391Z,100.0
2018-12-05T01:15:25.771Z,100.0
2018-12-05T01:16:27.153Z,100.0
2018-12-05T01:17:28.531Z,100.0
2018-12-05T01:18:29.963Z,100.0
2018-12-05T01:19:31.292Z,100.0
2018-12-05T01:20:32.677Z,100.0
2018-12-05T01:21:34.059Z,100.0
2018-12-05T01:22:35.440Z,100.0
2018-12-05T01:23:36.820Z,100.0
2018-12-05T01:24:38.200Z,100.0
2018-12-05T01:25:39.576Z,100.0
2018-12-05T01:26:41.008Z,100.0
2018-12-05T01:27:42.352Z,100.0
2018-12-05T01:28:43.792Z,100.0
2018-12-05T01:29:45.170Z,100.0
2018-12-05T01:30:46.546Z,100.0
2018-12-05T01:31:47.925Z,100.0
2018-12-05T01:32:49.373Z,100.0
2018-12-05T01:33:50.757Z,100.0
2018-12-05T01:34:52.135Z,100.0
2018-12-05T01:35:53.516Z,100.0
2018-12-05T01:36:54.896Z,100.0
2018-12-05T01:37:56.278Z,100.0
2018-12-05T01:38:57.658Z,100.0
2018-12-05T01:39:59.039Z,100.0
2018-12-05T01:41:00.419Z,100.0
2018-12-05T01:42:01.799Z,100.0
2018-12-05T01:43:03.182Z,100.0
2018-12-05T01:44:04.561Z,100.0
2018-12-05T01:45:05.970Z,100.0
2018-12-05T01:46:07.346Z,100.0
2018-12-05T01:47:08.777Z,100.0
2018-12-05T01:48:10.146Z,100.0
2018-12-05T01:49:11.542Z,100.0
2018-12-05T01:50:12.924Z,100.0
2018-12-05T01:51:14.306Z,100.0
2018-12-05T01:52:15.683Z,100.0
2018-12-05T01:53:17.061Z,100.0
2018-12-05T01:54:18.446Z,100.0
2018-12-05T01:55:19.829Z,100.0
2018-12-05T01:56:21.206Z,100.0
2018-12-05T01:57:22.637Z,100.0
2018-12-05T01:58:24.020Z,100.0
2018-12-05T01:59:25.396Z,100.0
2018-12-05T02:00:26.779Z,100.0
2018-12-05T02:01:28.158Z,100.0
2018-12-05T02:02:29.540Z,100.0
2018-12-05T02:03:30.918Z,100.0
2018-12-05T02:04:32.298Z,100.0
2018-12-05T02:05:33.680Z,100.0
2018-12-05T02:06:35.054Z,100.0
2018-12-05T02:07:36.433Z,100.0
2018-12-05T02:08:37.810Z,100.0
2018-12-05T02:09:39.194Z,100.0
2018-12-05T02:10:40.575Z,100.0
2018-12-05T02:11:41.956Z,100.0
2018-12-05T02:12:43.337Z,100.0
2018-12-05T02:13:44.716Z,100.0
2018-12-05T02:14:46.114Z,100.0
2018-12-05T02:15:47.494Z,100.0
2018-12-05T02:16:48.868Z,100.0
2018-12-05T02:17:50.254Z,100.0
2018-12-05T02:18:51.632Z,100.0
2018-12-05T02:19:53.018Z,100.0
2018-12-05T02:20:54.397Z,100.0
2018-12-05T02:21:55.781Z,100.0
2018-12-05T02:22:57.160Z,100.0
2018-12-05T02:23:58.560Z,100.0
2018-12-05T02:24:59.964Z,100.0
2018-12-05T02:26:01.344Z,100.0
2018-12-05T02:27:02.726Z,100.0
2018-12-05T02:28:04.109Z,100.0
2018-12-05T02:29:05.494Z,100.0
2018-12-05T02:30:06.881Z,100.0
2018-12-05T02:31:08.254Z,100.0
2018-12-05T02:32:09.664Z,100.0
2018-12-05T02:33:11.058Z,100.0
2018-12-05T02:34:12.468Z,100.0
2018-12-05T02:35:13.846Z,100.0
2018-12-05T02:36:15.224Z,100.0
2018-12-05T02:37:16.606Z,100.0
2018-12-05T02:38:17.989Z,100.0
2018-12-05T02:39:19.368Z,100.0
2018-12-05T02:40:20.752Z,100.0
2018-12-05T02:41:22.135Z,100.0
2018-12-05T02:42:23.511Z,100.0
2018-12-05T02:43:24.914Z,100.0
2018-12-05T02:44:26.291Z,100.0
2018-12-05T02:45:27.673Z,100.0
2018-12-05T02:46:29.051Z,100.0
2018-12-05T02:47:30.433Z,100.0
2018-12-05T02:48:31.833Z,100.0
2018-12-05T02:49:33.211Z,100.0
2018-12-05T02:50:34.592Z,100.0
2018-12-05T02:51:35.970Z,100.0
2018-12-05T02:52:37.382Z,100.0
2018-12-05T02:53:38.764Z,100.0
2018-12-05T02:54:40.146Z,100.0
2018-12-05T02:55:41.522Z,100.0
2018-12-05T02:56:42.902Z,100.0
2018-12-05T02:57:44.285Z,100.0
2018-12-05T02:58:45.664Z,100.0
2018-12-05T02:59:47.011Z,100.0
2018-12-05T03:00:48.391Z,100.0
2018-12-05T03:01:49.771Z,100.0
2018-12-05T03:02:51.152Z,100.0
2018-12-05T03:03:52.530Z,100.0
2018-12-05T03:04:53.914Z,100.0
2018-12-05T03:05:55.293Z,100.0
2018-12-05T03:06:56.671Z,100.0
2018-12-05T03:07:58.053Z,100.0
2018-12-05T03:08:59.432Z,100.0
2018-12-05T03:10:00.813Z,100.0
2018-12-05T03:11:02.206Z,100.0
2018-12-05T03:12:03.575Z,100.0
2018-12-05T03:13:05.004Z,100.0
2018-12-05T03:14:06.387Z,100.0
2018-12-05T03:15:07.808Z,100.0
2018-12-05T03:16:09.316Z,100.0
2018-12-05T03:17:10.699Z,100.0
2018-12-05T03:18:12.081Z,100.0
2018-12-05T03:19:13.471Z,100.0
2018-12-05T03:20:14.850Z,100.0
2018-12-05T03:21:16.236Z,100.0
2018-12-05T03:22:17.615Z,100.0
2018-12-05T03:23:18.993Z,100.0
2018-12-05T03:24:20.371Z,100.0
2018-12-05T03:25:21.784Z,100.0
2018-12-05T03:26:23.151Z,100.0
2018-12-05T03:27:24.606Z,100.0
2018-12-05T03:28:25.987Z,100.0
2018-12-05T03:29:27.360Z,100.0
2018-12-05T03:30:28.801Z,100.0
2018-12-05T03:31:30.123Z,100.0
2018-12-05T03:32:31.496Z,100.0
2018-12-05T03:33:32.878Z,100.0
2018-12-05T03:34:34.254Z,100.0
2018-12-05T03:35:35.635Z,100.0
2018-12-05T03:36:37.019Z,100.0
2018-12-05T03:37:38.394Z,100.0
2018-12-05T03:38:39.777Z,100.0
2018-12-05T03:39:41.155Z,100.0
2018-12-05T03:40:42.548Z,100.0
2018-12-05T03:41:43.925Z,100.0
2018-12-05T03:42:45.304Z,100.0
2018-12-05T03:43:46.683Z,100.0
2018-12-05T03:44:48.074Z,100.0
2018-12-05T03:45:49.456Z,100.0
2018-12-05T03:46:50.839Z,100.0
2018-12-05T03:47:52.214Z,100.0
2018-12-05T03:48:53.609Z,100.0
2018-12-05T03:49:54.989Z,100.0
2018-12-05T03:50:56.364Z,100.0
2018-12-05T03:51:57.746Z,100.0
2018-12-05T03:52:59.130Z,100.0
2018-12-05T03:54:00.509Z,100.0
2018-12-05T03:55:01.890Z,100.0
2018-12-05T03:56:03.263Z,100.0
2018-12-05T03:57:04.643Z,100.0
2018-12-05T03:58:06.023Z,100.0
2018-12-05T03:59:07.401Z,100.0
2018-12-05T04:00:08.833Z,100.0
2018-12-05T04:01:10.214Z,100.0
2018-12-05T04:02:11.598Z,100.0
2018-12-05T04:03:12.978Z,100.0
2018-12-05T04:04:14.354Z,100.0
2018-12-05T04:05:15.747Z,100.0
2018-12-05T04:06:17.149Z,100.0
2018-12-05T04:07:18.544Z,100.0
2018-12-05T04:08:19.926Z,100.0
2018-12-05T04:09:21.301Z,100.0
2018-12-05T04:10:22.702Z,100.0
2018-12-05T04:11:24.081Z,100.0
2018-12-05T04:12:25.457Z,100.0
2018-12-05T04:13:26.837Z,100.0
2018-12-05T04:14:28.228Z,100.0
2018-12-05T04:15:29.603Z,100.0
2018-12-05T04:16:30.986Z,100.0
2018-12-05T04:17:32.365Z,100.0
2018-12-05T04:18:33.746Z,100.0
2018-12-05T04:19:35.127Z,100.0
2018-12-05T04:20:36.510Z,100.0
2018-12-05T04:21:37.890Z,100.0
2018-12-05T04:22:39.266Z,100.0
2018-12-05T04:23:40.666Z,100.0
2018-12-05T04:24:42.044Z,100.0
2018-12-05T04:25:43.424Z,100.0
2018-12-05T04:26:44.825Z,100.0
2018-12-05T04:27:46.202Z,100.0
2018-12-05T04:28:47.540Z,100.0
2018-12-05T04:29:48.916Z,100.0
2018-12-05T04:30:50.301Z,100.0
2018-12-05T04:31:51.683Z,100.0
2018-12-05T04:32:53.059Z,100.0
2018-12-05T04:33:54.438Z,100.0
2018-12-05T04:34:55.820Z,100.0
2018-12-05T04:35:57.200Z,100.0
2018-12-05T04:36:58.576Z,100.0
2018-12-05T04:37:59.956Z,100.0
2018-12-05T04:39:01.336Z,100.0
2018-12-05T04:40:02.716Z,100.0
2018-12-05T04:41:04.102Z,100.0
2018-12-05T04:42:05.480Z,100.0
2018-12-05T04:43:06.860Z,100.0
2018-12-05T04:44:08.238Z,100.0
2018-12-05T04:45:09.616Z,100.0
2018-12-05T04:46:10.995Z,100.0
2018-12-05T04:47:12.374Z,100.0
2018-12-05T04:48:13.752Z,100.0
2018-12-05T04:49:15.132Z,100.0
2018-12-05T04:50:16.515Z,100.0
2018-12-05T04:51:17.892Z,100.0
2018-12-05T04:52:19.270Z,100.0
2018-12-05T04:53:20.651Z,100.0
2018-12-05T04:54:22.030Z,100.0
2018-12-05T04:55:23.439Z,100.0
2018-12-05T04:56:24.820Z,100.0
2018-12-05T04:57:26.202Z,100.0
2018-12-05T04:58:27.654Z,100.0
2018-12-05T04:59:29.035Z,100.0
2018-12-05T05:00:30.437Z,100.0
2018-12-05T05:01:31.837Z,100.0
2018-12-05T05:02:33.223Z,100.0
2018-12-05T05:03:34.606Z,100.0
2018-12-05T05:04:35.984Z,100.0
2018-12-05T05:05:37.360Z,100.0
2018-12-05T05:06:41.691Z,100.0
2018-12-05T05:07:40.088Z,100.0
2018-12-05T05:08:41.466Z,100.0
2018-12-05T05:09:42.849Z,100.0
2018-12-05T05:10:44.224Z,100.0
2018-12-05T05:11:45.635Z,100.0
2018-12-05T05:12:47.015Z,100.0
2018-12-05T05:13:48.394Z,100.0
2018-12-05T05:14:49.773Z,100.0
2018-12-05T05:15:51.162Z,100.0
2018-12-05T05:16:52.538Z,100.0
2018-12-05T05:17:53.922Z,100.0
2018-12-05T05:18:55.303Z,100.0
2018-12-05T05:19:56.683Z,100.0
2018-12-05T05:20:58.092Z,100.0
2018-12-05T05:21:59.501Z,100.0
2018-12-05T05:23:00.881Z,100.0
2018-12-05T05:24:02.281Z,100.0
2018-12-05T05:25:03.641Z,100.0
2018-12-05T05:26:05.037Z,100.0
2018-12-05T05:27:06.413Z,100.0
2018-12-05T05:28:07.801Z,100.0
2018-12-05T05:29:09.182Z,100.0
2018-12-05T05:30:10.561Z,100.0
2018-12-05T05:31:11.943Z,100.0
2018-12-05T05:32:13.319Z,100.0
2018-12-05T05:33:14.702Z,100.0
2018-12-05T05:34:16.080Z,100.0
2018-12-05T05:35:17.456Z,100.0
2018-12-05T05:36:18.836Z,100.0
2018-12-05T05:37:20.216Z,100.0
2018-12-05T05:38:21.600Z,100.0
2018-12-05T05:39:22.976Z,100.0
2018-12-05T05:40:24.359Z,100.0
2018-12-05T05:41:25.738Z,100.0
2018-12-05T05:42:27.119Z,100.0
2018-12-05T05:43:28.499Z,100.0
2018-12-05T05:44:29.881Z,100.0
2018-12-05T05:45:31.258Z,100.0
2018-12-05T05:46:32.637Z,100.0
2018-12-05T05:47:34.023Z,100.0
2018-12-05T05:48:35.403Z,100.0
2018-12-05T05:49:36.842Z,100.0
2018-12-05T05:50:38.251Z,100.0
2018-12-05T05:51:39.630Z,100.0
2018-12-05T05:52:41.013Z,100.0
2018-12-05T05:53:42.394Z,100.0
2018-12-05T05:54:43.775Z,100.0
2018-12-05T05:55:45.149Z,100.0
2018-12-05T05:56:46.526Z,100.0
2018-12-05T05:57:47.900Z,100.0
2018-12-05T05:58:49.283Z,100.0
2018-12-05T05:59:50.672Z,100.0
2018-12-05T06:00:52.053Z,100.0
2018-12-05T06:01:53.435Z,100.0
2018-12-05T06:02:54.810Z,100.0
2018-12-05T06:03:56.192Z,100.0
2018-12-05T06:04:57.561Z,100.0
2018-12-05T06:05:58.946Z,100.0
2018-12-05T06:07:00.324Z,100.0
2018-12-05T06:08:01.706Z,100.0
2018-12-05T06:09:03.086Z,100.0
2018-12-05T06:10:04.462Z,100.0
2018-12-05T06:11:05.843Z,100.0
2018-12-05T06:12:07.220Z,100.0
2018-12-05T06:13:08.604Z,100.0
2018-12-05T06:14:09.980Z,100.0
2018-12-05T06:15:11.359Z,100.0
2018-12-05T06:16:12.809Z,100.0
2018-12-05T06:17:14.189Z,100.0
2018-12-05T06:18:15.565Z,100.0
2018-12-05T06:19:16.948Z,100.0
2018-12-05T06:20:18.323Z,100.0
2018-12-05T06:21:19.706Z,100.0
2018-12-05T06:22:21.083Z,100.0
2018-12-05T06:23:22.458Z,100.0
2018-12-05T06:24:23.921Z,100.0
2018-12-05T06:25:25.313Z,100.0
2018-12-05T06:26:26.695Z,100.0
2018-12-05T06:27:28.078Z,100.0
2018-12-05T06:28:29.457Z,100.0
2018-12-05T06:29:30.857Z,100.0
2018-12-05T06:30:32.235Z,100.0
2018-12-05T06:31:33.619Z,100.0
2018-12-05T06:32:34.994Z,100.0
2018-12-05T06:33:36.374Z,100.0
2018-12-05T06:34:37.756Z,100.0
2018-12-05T06:35:39.134Z,100.0
2018-12-05T06:36:40.516Z,100.0
2018-12-05T06:37:41.896Z,100.0
2018-12-05T06:38:43.274Z,100.0
2018-12-05T06:39:44.654Z,100.0
2018-12-05T06:40:46.030Z,100.0
2018-12-05T06:41:47.456Z,100.0
2018-12-05T06:42:48.864Z,100.0
2018-12-05T06:43:50.247Z,100.0
2018-12-05T06:44:51.631Z,100.0
2018-12-05T06:45:53.007Z,100.0
2018-12-05T06:46:54.388Z,100.0
2018-12-05T06:47:55.767Z,100.0
2018-12-05T06:48:57.149Z,100.0
2018-12-05T06:49:58.535Z,100.0
2018-12-05T06:50:59.921Z,100.0
2018-12-05T06:52:01.298Z,100.0
2018-12-05T06:53:02.674Z,100.0
2018-12-05T06:54:04.058Z,100.0
2018-12-05T06:55:05.430Z,100.0
2018-12-05T06:56:06.854Z,100.0
2018-12-05T06:57:08.240Z,100.0
2018-12-05T06:58:09.633Z,100.0
2018-12-05T06:59:11.011Z,100.0
2018-12-05T07:00:12.394Z,100.0
2018-12-05T07:01:13.770Z,100.0
2018-12-05T07:02:15.150Z,100.0
2018-12-05T07:03:16.528Z,100.0
2018-12-05T07:04:17.908Z,100.0
2018-12-05T07:05:19.286Z,100.0
2018-12-05T07:06:20.676Z,100.0
2018-12-05T07:07:22.058Z,100.0
2018-12-05T07:08:23.435Z,100.0
2018-12-05T07:09:24.816Z,100.0
2018-12-05T07:10:26.202Z,100.0
2018-12-05T07:11:27.576Z,100.0
2018-12-05T07:12:28.963Z,100.0
2018-12-05T07:13:30.353Z,100.0
2018-12-05T07:14:31.731Z,100.0
2018-12-05T07:15:33.115Z,100.0
2018-12-05T07:16:34.493Z,100.0
2018-12-05T07:17:35.874Z,100.0
2018-12-05T07:18:37.259Z,100.0
2018-12-05T07:19:38.638Z,100.0
2018-12-05T07:20:40.024Z,100.0
2018-12-05T07:21:41.399Z,100.0
2018-12-05T07:22:42.777Z,100.0
2018-12-05T07:23:44.160Z,100.0
2018-12-05T07:24:45.539Z,100.0
2018-12-05T07:25:46.924Z,100.0
2018-12-05T07:26:48.304Z,100.0
2018-12-05T07:27:49.686Z,100.0
2018-12-05T07:28:51.067Z,100.0
2018-12-05T07:29:52.445Z,100.0
2018-12-05T07:30:55.083Z,100.0
2018-12-05T07:31:55.168Z,100.0
2018-12-05T07:32:56.550Z,100.0
2018-12-05T07:33:57.992Z,100.0
2018-12-05T07:34:59.376Z,100.0
2018-12-05T07:36:00.754Z,100.0
2018-12-05T07:37:02.136Z,100.0
2018-12-05T07:38:03.519Z,100.0
2018-12-05T07:39:04.903Z,100.0
2018-12-05T07:40:06.290Z,100.0
2018-12-05T07:41:07.680Z,100.0
2018-12-05T07:42:09.063Z,100.0
2018-12-05T07:43:10.441Z,100.0
2018-12-05T07:44:11.825Z,100.0
2018-12-05T07:45:13.199Z,100.0
2018-12-05T07:46:14.585Z,100.0
2018-12-05T07:47:15.966Z,100.0
2018-12-05T07:48:17.346Z,100.0
2018-12-05T07:49:18.732Z,100.0
2018-12-05T07:50:20.113Z,100.0
2018-12-05T07:51:21.496Z,100.0
2018-12-05T07:52:22.873Z,100.0
2018-12-05T07:53:24.259Z,100.0
2018-12-05T07:54:25.640Z,100.0
2018-12-05T07:55:27.026Z,100.0
2018-12-05T07:56:28.412Z,100.0
2018-12-05T07:57:29.792Z,100.0
2018-12-05T07:58:31.171Z,100.0
2018-12-05T07:59:32.557Z,100.0
2018-12-05T08:00:33.941Z,100.0
2018-12-05T08:01:35.327Z,100.0
2018-12-05T08:02:36.710Z,100.0
2018-12-05T08:03:38.095Z,100.0
2018-12-05T08:04:39.475Z,100.0
2018-12-05T08:05:40.856Z,100.0
2018-12-05T08:06:42.240Z,100.0
2018-12-05T08:07:43.635Z,100.0
2018-12-05T08:08:45.022Z,100.0
2018-12-05T08:09:46.405Z,100.0
2018-12-05T08:10:47.796Z,100.0
2018-12-05T08:11:49.174Z,100.0
2018-12-05T08:12:50.555Z,100.0
2018-12-05T08:13:51.937Z,100.0
2018-12-05T08:14:53.319Z,100.0
2018-12-05T08:15:54.705Z,100.0
2018-12-05T08:16:56.090Z,100.0
2018-12-05T08:17:57.470Z,100.0
2018-12-05T08:18:58.855Z,100.0
2018-12-05T08:20:00.236Z,100.0
2018-12-05T08:21:01.619Z,100.0
2018-12-05T08:22:03.005Z,100.0
2018-12-05T08:23:04.389Z,100.0
2018-12-05T08:24:05.775Z,100.0
2018-12-05T08:25:07.201Z,100.0
2018-12-05T08:26:08.661Z,100.0
2018-12-05T08:27:10.043Z,100.0
2018-12-05T08:28:11.426Z,100.0
2018-12-05T08:29:12.808Z,100.0
2018-12-05T08:30:14.197Z,100.0
2018-12-05T08:31:15.579Z,100.0
2018-12-05T08:32:16.965Z,100.0
2018-12-05T08:33:18.348Z,100.0
2018-12-05T08:34:19.737Z,100.0
2018-12-05T08:35:21.120Z,100.0
2018-12-05T08:36:22.504Z,100.0
2018-12-05T08:37:23.890Z,100.0
2018-12-05T08:38:25.276Z,100.0
2018-12-05T08:39:26.661Z,100.0
2018-12-05T08:40:28.042Z,100.0
2018-12-05T08:41:29.423Z,100.0
2018-12-05T08:42:30.807Z,100.0
2018-12-05T08:43:32.190Z,100.0
2018-12-05T08:44:33.573Z,100.0
2018-12-05T08:45:34.964Z,100.0
2018-12-05T08:46:36.350Z,100.0
2018-12-05T08:47:37.733Z,100.0
2018-12-05T08:48:39.113Z,100.0
2018-12-05T08:49:40.498Z,100.0
2018-12-05T08:50:41.885Z,100.0
2018-12-05T08:51:43.269Z,100.0
2018-12-05T08:52:44.657Z,100.0
2018-12-05T08:53:46.052Z,100.0
2018-12-05T08:54:47.438Z,100.0
2018-12-05T08:55:48.824Z,100.0
2018-12-05T08:56:50.210Z,100.0
2018-12-05T08:57:51.596Z,100.0
2018-12-05T08:58:52.981Z,100.0
2018-12-05T08:59:54.365Z,100.0
2018-12-05T09:00:55.753Z,100.0
2018-12-05T09:01:57.136Z,100.0
2018-12-05T09:02:58.522Z,100.0
2018-12-05T09:03:59.907Z,100.0
2018-12-05T09:05:01.290Z,100.0
2018-12-05T09:06:02.673Z,100.0
2018-12-05T09:07:04.061Z,100.0
2018-12-05T09:08:05.446Z,100.0
2018-12-05T09:09:06.831Z,100.0
2018-12-05T09:10:08.213Z,100.0
2018-12-05T09:11:09.596Z,100.0
2018-12-05T09:12:10.983Z,100.0
2018-12-05T09:13:12.377Z,100.0
2018-12-05T09:14:13.761Z,100.0
2018-12-05T09:15:15.156Z,100.0
2018-12-05T09:16:16.618Z,100.0
2018-12-05T09:17:18.006Z,100.0
2018-12-05T09:18:19.393Z,100.0
2018-12-05T09:19:20.778Z,100.0
2018-12-05T09:20:22.163Z,100.0
2018-12-05T09:21:23.548Z,100.0
2018-12-05T09:22:24.934Z,100.0
2018-12-05T09:23:26.315Z,100.0
2018-12-05T09:24:27.752Z,100.0
2018-12-05T09:25:29.138Z,100.0
2018-12-05T09:26:30.524Z,100.0
2018-12-05T09:27:31.909Z,100.0
2018-12-05T09:28:33.294Z,100.0
2018-12-05T09:29:34.682Z,100.0
2018-12-05T09:30:36.074Z,100.0
2018-12-05T09:31:37.457Z,100.0
2018-12-05T09:32:38.847Z,100.0
2018-12-05T09:33:40.235Z,100.0
2018-12-05T09:34:41.623Z,100.0
2018-12-05T09:35:43.016Z,100.0
2018-12-05T09:36:44.403Z,100.0
2018-12-05T09:37:45.794Z,100.0
2018-12-05T09:38:47.189Z,100.0
2018-12-05T09:39:48.570Z,100.0
2018-12-05T09:40:49.953Z,100.0
2018-12-05T09:41:51.347Z,100.0
2018-12-05T09:42:52.727Z,100.0
2018-12-05T09:43:54.111Z,100.0
2018-12-05T09:44:55.504Z,100.0
2018-12-05T09:45:56.887Z,100.0
2018-12-05T09:46:58.272Z,100.0
2018-12-05T09:47:59.661Z,100.0
2018-12-05T09:49:01.051Z,100.0
2018-12-05T09:50:02.432Z,100.0
2018-12-05T09:51:03.819Z,100.0
2018-12-05T09:52:05.228Z,100.0
2018-12-05T09:53:06.594Z,100.0
2018-12-05T09:54:07.977Z,100.0
2018-12-05T09:55:09.362Z,100.0
2018-12-05T09:56:10.747Z,100.0
2018-12-05T09:57:12.134Z,100.0
2018-12-05T09:58:13.525Z,100.0
2018-12-05T09:59:14.908Z,100.0
2018-12-05T10:00:16.298Z,100.0
2018-12-05T10:01:17.682Z,100.0
2018-12-05T10:02:19.064Z,100.0
2018-12-05T10:03:20.458Z,100.0
2018-12-05T10:04:21.842Z,100.0
2018-12-05T10:05:23.236Z,100.0
2018-12-05T10:06:24.618Z,100.0
2018-12-05T10:07:26.092Z,100.0
2018-12-05T10:08:27.472Z,100.0
2018-12-05T10:09:28.853Z,100.0
2018-12-05T10:10:30.252Z,100.0
2018-12-05T10:11:31.638Z,100.0
2018-12-05T10:12:33.031Z,100.0
2018-12-05T10:13:34.413Z,100.0
2018-12-05T10:14:35.801Z,100.0
2018-12-05T10:15:37.187Z,100.0
2018-12-05T10:16:38.583Z,100.0
2018-12-05T10:17:39.964Z,100.0
2018-12-05T10:18:41.353Z,100.0
2018-12-05T10:19:42.740Z,100.0
2018-12-05T10:20:44.135Z,100.0
2018-12-05T10:21:45.522Z,100.0
2018-12-05T10:22:46.905Z,100.0
2018-12-05T10:23:48.292Z,100.0
2018-12-05T10:24:49.678Z,100.0
2018-12-05T10:25:51.063Z,100.0
2018-12-05T10:26:52.450Z,100.0
2018-12-05T10:27:53.834Z,100.0
2018-12-05T10:28:55.217Z,100.0
2018-12-05T10:29:56.605Z,100.0
2018-12-05T10:30:57.987Z,100.0
2018-12-05T10:31:59.374Z,100.0
2018-12-05T10:33:00.762Z,100.0
2018-12-05T10:34:02.153Z,100.0
2018-12-05T10:35:03.539Z,100.0
2018-12-05T10:36:04.923Z,100.0
2018-12-05T10:37:06.310Z,100.0
2018-12-05T10:38:07.691Z,100.0
2018-12-05T10:39:09.077Z,100.0
2018-12-05T10:40:10.462Z,100.0
2018-12-05T10:41:11.849Z,100.0
2018-12-05T10:42:13.237Z,100.0
2018-12-05T10:43:14.621Z,100.0
2018-12-05T10:44:16.006Z,100.0
2018-12-05T10:45:17.393Z,100.0
2018-12-05T10:46:18.781Z,100.0
2018-12-05T10:47:20.167Z,100.0
2018-12-05T10:48:21.559Z,100.0
2018-12-05T10:49:22.944Z,100.0
2018-12-05T10:50:24.336Z,100.0
2018-12-05T10:51:25.724Z,100.0
2018-12-05T10:52:27.123Z,100.0
2018-12-05T10:53:28.510Z,100.0
2018-12-05T10:54:29.895Z,100.0
2018-12-05T10:55:31.285Z,100.0
2018-12-05T10:56:32.679Z,100.0
2018-12-05T10:57:34.053Z,100.0
2018-12-05T10:58:35.439Z,100.0
2018-12-05T10:59:36.861Z,100.0
2018-12-05T11:00:38.251Z,100.0
2018-12-05T11:01:39.638Z,100.0
2018-12-05T11:02:41.035Z,100.0
2018-12-05T11:03:42.423Z,100.0
2018-12-05T11:04:43.813Z,100.0
2018-12-05T11:05:45.263Z,100.0
2018-12-05T11:06:46.588Z,100.0
2018-12-05T11:07:47.975Z,100.0
2018-12-05T11:08:49.364Z,100.0
2018-12-05T11:09:50.753Z,100.0
2018-12-05T11:10:52.144Z,100.0
2018-12-05T11:11:53.535Z,100.0
2018-12-05T11:12:54.922Z,100.0
2018-12-05T11:13:56.312Z,100.0
2018-12-05T11:14:57.699Z,100.0
2018-12-05T11:15:59.088Z,100.0
2018-12-05T11:17:00.474Z,100.0
2018-12-05T11:18:01.861Z,100.0
2018-12-05T11:19:03.246Z,100.0
2018-12-05T11:20:04.633Z,100.0
2018-12-05T11:21:06.018Z,100.0
2018-12-05T11:22:07.408Z,100.0
2018-12-05T11:23:08.797Z,100.0
2018-12-05T11:24:10.195Z,100.0
2018-12-05T11:25:11.581Z,100.0
2018-12-05T11:26:12.967Z,99.6
2018-12-05T11:27:14.348Z,99.2
2018-12-05T11:28:15.763Z,98.5
2018-12-05T11:29:17.155Z,99.0
2018-12-05T11:30:18.543Z,98.7
2018-12-05T11:31:19.933Z,97.9
2018-12-05T11:32:21.321Z,98.9
2018-12-05T11:33:22.711Z,98.7
2018-12-05T11:34:24.096Z,99.1
2018-12-05T11:35:25.485Z,99.1
2018-12-05T11:36:26.884Z,99.1
2018-12-05T11:37:28.272Z,99.2
2018-12-05T11:38:29.669Z,98.8
2018-12-05T11:39:31.054Z,98.8
2018-12-05T11:40:32.448Z,98.6
2018-12-05T11:41:33.849Z,98.7
2018-12-05T11:42:35.225Z,98.8
2018-12-05T11:43:36.616Z,99.1
2018-12-05T11:44:38.003Z,98.8
2018-12-05T11:45:39.393Z,98.7
2018-12-05T11:46:40.779Z,98.1
2018-12-05T11:47:42.169Z,96.6
2018-12-05T11:48:43.551Z,96.1
2018-12-05T11:49:44.960Z,95.0
2018-12-05T11:50:46.416Z,94.1
2018-12-05T11:51:47.806Z,92.7
2018-12-05T11:52:49.196Z,92.5
2018-12-05T11:53:50.583Z,92.1
2018-12-05T11:54:51.971Z,91.9
2018-12-05T11:55:53.362Z,91.1
2018-12-05T11:56:54.754Z,91.9
2018-12-05T11:57:56.153Z,91.7
2018-12-05T11:58:57.544Z,91.2
2018-12-05T11:59:58.935Z,90.5
2018-12-05T12:01:00.323Z,89.4
2018-12-05T12:02:01.711Z,88.3
2018-12-05T12:03:03.098Z,88.4
2018-12-05T12:04:04.486Z,87.4
2018-12-05T12:05:05.875Z,87.6
2018-12-05T12:06:07.264Z,87.3
2018-12-05T12:07:08.667Z,87.0
2018-12-05T12:08:10.052Z,85.8
2018-12-05T12:09:11.437Z,85.4
2018-12-05T12:10:12.829Z,85.8
2018-12-05T12:11:14.222Z,85.3
2018-12-05T12:12:15.614Z,85.4
2018-12-05T12:13:17.005Z,85.3
2018-12-05T12:14:18.399Z,84.7
2018-12-05T12:15:19.789Z,84.7
2018-12-05T12:16:21.179Z,84.7
2018-12-05T12:17:22.571Z,84.7
2018-12-05T12:18:23.969Z,84.1
2018-12-05T12:19:25.358Z,83.8
2018-12-05T12:20:26.762Z,83.1
2018-12-05T12:21:28.154Z,82.7
2018-12-05T12:22:29.549Z,82.5
2018-12-05T12:23:30.936Z,82.1
2018-12-05T12:24:34.819Z,80.4
2018-12-05T12:25:33.688Z,79.4
2018-12-05T12:26:35.077Z,78.4
2018-12-05T12:27:36.472Z,79.3
2018-12-05T12:28:37.874Z,79.8
2018-12-05T12:29:39.259Z,80.2
2018-12-05T12:30:40.646Z,80.9
2018-12-05T12:31:42.040Z,81.7
2018-12-05T12:32:43.426Z,82.6
2018-12-05T12:33:44.815Z,83.0
2018-12-05T12:34:46.210Z,83.4
2018-12-05T12:35:47.603Z,84.2
2018-12-05T12:36:48.998Z,84.3
2018-12-05T12:37:50.385Z,84.5
2018-12-05T12:38:51.778Z,84.5
2018-12-05T12:39:53.195Z,85.2
2018-12-05T12:40:54.640Z,84.9
2018-12-05T12:41:56.045Z,84.6
2018-12-05T12:42:57.454Z,84.9
2018-12-05T12:43:58.859Z,85.3
2018-12-05T12:45:00.253Z,85.8
2018-12-05T12:46:01.642Z,85.8
2018-12-05T12:47:03.093Z,86.0
2018-12-05T12:48:04.421Z,86.2
2018-12-05T12:49:05.816Z,87.2
2018-12-05T12:50:07.209Z,87.6
2018-12-05T12:51:08.592Z,88.3
2018-12-05T12:52:09.986Z,87.8
2018-12-05T12:53:11.377Z,88.7
2018-12-05T12:54:12.757Z,89.2
2018-12-05T12:55:14.148Z,90.0
2018-12-05T12:56:15.542Z,90.0
2018-12-05T12:57:16.930Z,90.4
2018-12-05T12:58:18.314Z,90.7
2018-12-05T12:59:19.705Z,91.1
2018-12-05T13:00:21.088Z,90.9
2018-12-05T13:01:22.481Z,91.6
2018-12-05T13:02:23.868Z,91.5
2018-12-05T13:03:25.263Z,92.0
2018-12-05T13:04:26.653Z,92.3
2018-12-05T13:05:28.043Z,92.5
2018-12-05T13:06:29.427Z,92.7
2018-12-05T13:07:30.817Z,92.9
2018-12-05T13:08:32.209Z,93.6
2018-12-05T13:09:33.600Z,93.9
2018-12-05T13:10:34.991Z,94.3
2018-12-05T13:11:36.383Z,94.3
2018-12-05T13:12:37.772Z,94.5
2018-12-05T13:13:39.158Z,94.0
2018-12-05T13:14:40.543Z,94.6